sensor_id;sensor_type;location;lat;lon;timestamp;temperature;humidity
51637;DHT22;37713;53.254;6.460;2022-07-23T00:01:22;13.90;99.90
51637;DHT22;37713;53.254;6.460;2022-07-23T00:03:48;13.90;99.90
51637;DHT22;37713;53.254;6.460;2022-07-23T00:06:14;13.90;99.90
51637;DHT22;37713;53.254;6.460;2022-07-23T00:08:39;13.90;99.90
51637;DHT22;37713;53.254;6.460;2022-07-23T00:11:06;13.80;99.90
51637;DHT22;37713;53.254;6.460;2022-07-23T00:13:31;13.80;99.90
51637;DHT22;37713;53.254;6.460;2022-07-23T00:15:57;13.80;99.90
51637;DHT22;37713;53.254;6.460;2022-07-23T00:18:23;13.80;99.90
51637;DHT22;37713;53.254;6.460;2022-07-23T00:20:49;13.80;99.90
51637;DHT22;37713;53.254;6.460;2022-07-23T00:23:15;13.80;99.90
51637;DHT22;37713;53.254;6.460;2022-07-23T00:25:41;13.70;99.90
51637;DHT22;37713;53.254;6.460;2022-07-23T00:28:06;13.70;99.90
51637;DHT22;37713;53.254;6.460;2022-07-23T00:30:32;13.70;99.90
51637;DHT22;37713;53.254;6.460;2022-07-23T00:33:03;13.70;99.90
51637;DHT22;37713;53.254;6.460;2022-07-23T00:35:32;13.70;99.90
51637;DHT22;37713;53.254;6.460;2022-07-23T00:37:59;13.70;99.90
51637;DHT22;37713;53.254;6.460;2022-07-23T00:40:25;13.60;99.90
51637;DHT22;37713;53.254;6.460;2022-07-23T00:42:51;13.60;99.90
51637;DHT22;37713;53.254;6.460;2022-07-23T00:45:18;13.60;99.90
51637;DHT22;37713;53.254;6.460;2022-07-23T00:47:44;13.60;99.90
51637;DHT22;37713;53.254;6.460;2022-07-23T00:50:10;13.50;99.90
51637;DHT22;37713;53.254;6.460;2022-07-23T00:52:37;13.60;99.90
51637;DHT22;37713;53.254;6.460;2022-07-23T00:55:04;13.60;99.90
51637;DHT22;37713;53.254;6.460;2022-07-23T00:57:30;13.60;99.90
51637;DHT22;37713;53.254;6.460;2022-07-23T00:59:56;13.70;99.90
51637;DHT22;37713;53.254;6.460;2022-07-23T01:02:24;13.60;99.90
51637;DHT22;37713;53.254;6.460;2022-07-23T01:04:50;13.60;99.90
51637;DHT22;37713;53.254;6.460;2022-07-23T01:07:17;13.60;99.90
51637;DHT22;37713;53.254;6.460;2022-07-23T01:09:44;13.70;99.90
51637;DHT22;37713;53.254;6.460;2022-07-23T01:12:10;13.60;99.90
51637;DHT22;37713;53.254;6.460;2022-07-23T01:14:36;13.70;99.90
51637;DHT22;37713;53.254;6.460;2022-07-23T01:17:02;13.60;99.90
51637;DHT22;37713;53.254;6.460;2022-07-23T01:19:27;13.60;99.90
51637;DHT22;37713;53.254;6.460;2022-07-23T01:21:54;13.60;99.90
51637;DHT22;37713;53.254;6.460;2022-07-23T01:24:22;13.70;99.90
51637;DHT22;37713;53.254;6.460;2022-07-23T01:26:48;13.60;99.90
51637;DHT22;37713;53.254;6.460;2022-07-23T01:29:14;13.70;99.90
51637;DHT22;37713;53.254;6.460;2022-07-23T01:31:41;13.60;99.90
51637;DHT22;37713;53.254;6.460;2022-07-23T01:34:07;13.70;99.90
51637;DHT22;37713;53.254;6.460;2022-07-23T01:36:36;13.60;99.90
51637;DHT22;37713;53.254;6.460;2022-07-23T01:39:04;13.60;99.90
51637;DHT22;37713;53.254;6.460;2022-07-23T01:41:30;13.60;99.90
51637;DHT22;37713;53.254;6.460;2022-07-23T01:43:56;13.60;99.90
51637;DHT22;37713;53.254;6.460;2022-07-23T01:46:22;13.70;99.90
51637;DHT22;37713;53.254;6.460;2022-07-23T01:48:48;13.70;99.90
51637;DHT22;37713;53.254;6.460;2022-07-23T01:51:14;13.60;99.90
51637;DHT22;37713;53.254;6.460;2022-07-23T01:53:40;13.70;99.90
51637;DHT22;37713;53.254;6.460;2022-07-23T01:56:06;13.70;99.90
51637;DHT22;37713;53.254;6.460;2022-07-23T01:58:32;13.70;99.90
51637;DHT22;37713;53.254;6.460;2022-07-23T02:00:58;13.60;99.90
51637;DHT22;37713;53.254;6.460;2022-07-23T02:03:24;13.70;99.90
51637;DHT22;37713;53.254;6.460;2022-07-23T02:05:50;13.70;99.90
51637;DHT22;37713;53.254;6.460;2022-07-23T02:08:17;13.70;99.90
51637;DHT22;37713;53.254;6.460;2022-07-23T02:10:43;13.80;99.90
51637;DHT22;37713;53.254;6.460;2022-07-23T02:13:09;13.80;99.90
51637;DHT22;37713;53.254;6.460;2022-07-23T02:15:35;13.80;99.90
51637;DHT22;37713;53.254;6.460;2022-07-23T02:18:01;13.80;99.90
51637;DHT22;37713;53.254;6.460;2022-07-23T02:20:27;13.90;99.90
51637;DHT22;37713;53.254;6.460;2022-07-23T02:22:53;13.80;99.90
51637;DHT22;37713;53.254;6.460;2022-07-23T02:25:18;13.80;99.90
51637;DHT22;37713;53.254;6.460;2022-07-23T02:27:44;13.90;99.90
51637;DHT22;37713;53.254;6.460;2022-07-23T02:30:11;13.90;99.90
51637;DHT22;37713;53.254;6.460;2022-07-23T02:32:37;13.90;99.90
51637;DHT22;37713;53.254;6.460;2022-07-23T02:35:05;14.00;99.90
51637;DHT22;37713;53.254;6.460;2022-07-23T02:37:32;14.00;99.90
51637;DHT22;37713;53.254;6.460;2022-07-23T02:39:58;14.00;99.90
51637;DHT22;37713;53.254;6.460;2022-07-23T02:42:23;14.00;99.90
51637;DHT22;37713;53.254;6.460;2022-07-23T02:44:50;14.00;99.90
51637;DHT22;37713;53.254;6.460;2022-07-23T02:47:16;14.00;99.90
51637;DHT22;37713;53.254;6.460;2022-07-23T02:49:42;14.00;99.90
51637;DHT22;37713;53.254;6.460;2022-07-23T02:52:08;14.00;99.90
51637;DHT22;37713;53.254;6.460;2022-07-23T02:54:36;14.00;99.90
51637;DHT22;37713;53.254;6.460;2022-07-23T02:57:02;14.10;99.90
51637;DHT22;37713;53.254;6.460;2022-07-23T02:59:28;14.00;99.90
51637;DHT22;37713;53.254;6.460;2022-07-23T03:01:54;14.00;99.90
51637;DHT22;37713;53.254;6.460;2022-07-23T03:04:20;14.00;99.90
51637;DHT22;37713;53.254;6.460;2022-07-23T03:06:46;14.00;99.90
51637;DHT22;37713;53.254;6.460;2022-07-23T03:09:11;14.00;99.90
51637;DHT22;37713;53.254;6.460;2022-07-23T03:11:37;14.00;99.90
51637;DHT22;37713;53.254;6.460;2022-07-23T03:14:03;14.00;99.90
51637;DHT22;37713;53.254;6.460;2022-07-23T03:16:29;14.00;99.90
51637;DHT22;37713;53.254;6.460;2022-07-23T03:18:54;13.90;99.90
51637;DHT22;37713;53.254;6.460;2022-07-23T03:21:20;14.00;99.90
51637;DHT22;37713;53.254;6.460;2022-07-23T03:23:46;14.00;99.90
51637;DHT22;37713;53.254;6.460;2022-07-23T03:26:11;14.00;99.90
51637;DHT22;37713;53.254;6.460;2022-07-23T03:28:37;14.10;99.90
51637;DHT22;37713;53.254;6.460;2022-07-23T03:31:03;14.10;99.90
51637;DHT22;37713;53.254;6.460;2022-07-23T03:33:29;14.10;99.90
51637;DHT22;37713;53.254;6.460;2022-07-23T03:35:54;14.10;99.90
51637;DHT22;37713;53.254;6.460;2022-07-23T03:38:20;14.10;99.90
51637;DHT22;37713;53.254;6.460;2022-07-23T03:40:46;14.10;99.90
51637;DHT22;37713;53.254;6.460;2022-07-23T03:43:12;14.10;99.90
51637;DHT22;37713;53.254;6.460;2022-07-23T03:45:38;14.10;99.90
51637;DHT22;37713;53.254;6.460;2022-07-23T03:48:03;14.10;99.90
51637;DHT22;37713;53.254;6.460;2022-07-23T03:50:29;14.20;99.90
51637;DHT22;37713;53.254;6.460;2022-07-23T03:52:55;14.20;99.90
51637;DHT22;37713;53.254;6.460;2022-07-23T03:55:21;14.20;99.90
51637;DHT22;37713;53.254;6.460;2022-07-23T03:57:46;14.10;99.90
51637;DHT22;37713;53.254;6.460;2022-07-23T04:00:12;14.10;99.90
51637;DHT22;37713;53.254;6.460;2022-07-23T04:02:39;14.20;99.90
51637;DHT22;37713;53.254;6.460;2022-07-23T04:05:05;14.10;99.90
51637;DHT22;37713;53.254;6.460;2022-07-23T04:07:31;14.20;99.90
51637;DHT22;37713;53.254;6.460;2022-07-23T04:09:57;14.20;99.90
51637;DHT22;37713;53.254;6.460;2022-07-23T04:12:23;14.20;99.90
51637;DHT22;37713;53.254;6.460;2022-07-23T04:14:49;14.20;99.90
51637;DHT22;37713;53.254;6.460;2022-07-23T04:17:15;14.20;99.90
51637;DHT22;37713;53.254;6.460;2022-07-23T04:19:41;14.30;99.90
51637;DHT22;37713;53.254;6.460;2022-07-23T04:22:12;14.30;99.90
51637;DHT22;37713;53.254;6.460;2022-07-23T04:24:38;14.20;99.90
51637;DHT22;37713;53.254;6.460;2022-07-23T04:27:04;14.30;99.90
51637;DHT22;37713;53.254;6.460;2022-07-23T04:29:30;14.40;99.90
51637;DHT22;37713;53.254;6.460;2022-07-23T04:31:56;14.30;99.90
51637;DHT22;37713;53.254;6.460;2022-07-23T04:34:22;14.30;99.90
51637;DHT22;37713;53.254;6.460;2022-07-23T04:36:48;14.40;99.90
51637;DHT22;37713;53.254;6.460;2022-07-23T04:39:14;14.50;99.90
51637;DHT22;37713;53.254;6.460;2022-07-23T04:41:40;14.50;99.90
51637;DHT22;37713;53.254;6.460;2022-07-23T04:44:06;14.50;99.90
51637;DHT22;37713;53.254;6.460;2022-07-23T04:46:32;14.50;99.90
51637;DHT22;37713;53.254;6.460;2022-07-23T04:48:57;14.50;99.90
51637;DHT22;37713;53.254;6.460;2022-07-23T04:51:23;14.60;99.90
51637;DHT22;37713;53.254;6.460;2022-07-23T04:53:49;14.70;99.90
51637;DHT22;37713;53.254;6.460;2022-07-23T04:56:15;14.70;99.90
51637;DHT22;37713;53.254;6.460;2022-07-23T04:58:41;14.80;99.90
51637;DHT22;37713;53.254;6.460;2022-07-23T05:01:07;14.80;99.90
51637;DHT22;37713;53.254;6.460;2022-07-23T05:03:33;14.80;99.90
51637;DHT22;37713;53.254;6.460;2022-07-23T05:05:59;14.80;99.90
51637;DHT22;37713;53.254;6.460;2022-07-23T05:08:24;14.90;99.90
51637;DHT22;37713;53.254;6.460;2022-07-23T05:10:50;14.90;99.90
51637;DHT22;37713;53.254;6.460;2022-07-23T05:13:16;14.90;99.90
51637;DHT22;37713;53.254;6.460;2022-07-23T05:15:43;15.00;99.90
51637;DHT22;37713;53.254;6.460;2022-07-23T05:18:09;14.90;99.90
51637;DHT22;37713;53.254;6.460;2022-07-23T05:20:35;14.90;99.90
51637;DHT22;37713;53.254;6.460;2022-07-23T05:23:00;14.80;99.90
51637;DHT22;37713;53.254;6.460;2022-07-23T05:25:26;14.80;99.90
51637;DHT22;37713;53.254;6.460;2022-07-23T05:27:52;14.80;99.90
51637;DHT22;37713;53.254;6.460;2022-07-23T05:30:18;14.80;99.90
51637;DHT22;37713;53.254;6.460;2022-07-23T05:32:44;14.90;99.90
51637;DHT22;37713;53.254;6.460;2022-07-23T05:35:10;15.00;99.90
51637;DHT22;37713;53.254;6.460;2022-07-23T05:37:36;15.10;99.90
51637;DHT22;37713;53.254;6.460;2022-07-23T05:40:06;15.30;99.90
51637;DHT22;37713;53.254;6.460;2022-07-23T05:42:37;15.30;99.90
51637;DHT22;37713;53.254;6.460;2022-07-23T05:45:03;15.30;99.90
51637;DHT22;37713;53.254;6.460;2022-07-23T05:47:46;15.40;99.90
51637;DHT22;37713;53.254;6.460;2022-07-23T05:50:12;15.40;99.90
51637;DHT22;37713;53.254;6.460;2022-07-23T05:52:39;15.40;99.90
51637;DHT22;37713;53.254;6.460;2022-07-23T05:55:06;15.40;99.90
51637;DHT22;37713;53.254;6.460;2022-07-23T05:57:32;15.40;99.90
51637;DHT22;37713;53.254;6.460;2022-07-23T05:59:58;15.40;99.90
51637;DHT22;37713;53.254;6.460;2022-07-23T06:02:24;15.40;99.90
51637;DHT22;37713;53.254;6.460;2022-07-23T06:04:50;15.50;99.90
51637;DHT22;37713;53.254;6.460;2022-07-23T06:07:15;15.60;99.90
51637;DHT22;37713;53.254;6.460;2022-07-23T06:09:41;15.60;99.90
51637;DHT22;37713;53.254;6.460;2022-07-23T06:12:07;15.60;99.90
51637;DHT22;37713;53.254;6.460;2022-07-23T06:14:33;15.80;99.90
51637;DHT22;37713;53.254;6.460;2022-07-23T06:16:59;15.80;99.90
51637;DHT22;37713;53.254;6.460;2022-07-23T06:19:25;15.90;99.90
51637;DHT22;37713;53.254;6.460;2022-07-23T06:21:51;16.00;99.90
51637;DHT22;37713;53.254;6.460;2022-07-23T06:24:17;16.10;99.90
51637;DHT22;37713;53.254;6.460;2022-07-23T06:26:43;16.20;99.90
51637;DHT22;37713;53.254;6.460;2022-07-23T06:29:08;16.30;99.90
51637;DHT22;37713;53.254;6.460;2022-07-23T06:31:34;16.50;99.90
51637;DHT22;37713;53.254;6.460;2022-07-23T06:34:00;16.60;99.90
51637;DHT22;37713;53.254;6.460;2022-07-23T06:36:26;16.80;99.90
51637;DHT22;37713;53.254;6.460;2022-07-23T06:38:52;17.20;99.90
51637;DHT22;37713;53.254;6.460;2022-07-23T06:41:18;17.40;99.90
51637;DHT22;37713;53.254;6.460;2022-07-23T06:43:43;17.60;99.90
51637;DHT22;37713;53.254;6.460;2022-07-23T06:46:09;18.60;99.90
51637;DHT22;37713;53.254;6.460;2022-07-23T06:48:35;19.70;99.90
51637;DHT22;37713;53.254;6.460;2022-07-23T06:51:02;21.00;99.90
51637;DHT22;37713;53.254;6.460;2022-07-23T06:53:28;22.10;99.90
51637;DHT22;37713;53.254;6.460;2022-07-23T06:55:53;23.00;99.90
51637;DHT22;37713;53.254;6.460;2022-07-23T06:58:19;23.80;99.90
51637;DHT22;37713;53.254;6.460;2022-07-23T07:00:46;24.10;99.90
51637;DHT22;37713;53.254;6.460;2022-07-23T07:03:12;24.10;99.90
51637;DHT22;37713;53.254;6.460;2022-07-23T07:05:38;24.50;99.90
51637;DHT22;37713;53.254;6.460;2022-07-23T07:08:05;24.60;99.90
51637;DHT22;37713;53.254;6.460;2022-07-23T07:10:31;25.10;99.90
51637;DHT22;37713;53.254;6.460;2022-07-23T07:12:57;25.70;99.90
51637;DHT22;37713;53.254;6.460;2022-07-23T07:15:23;25.30;99.90
51637;DHT22;37713;53.254;6.460;2022-07-23T07:17:49;24.30;99.90
51637;DHT22;37713;53.254;6.460;2022-07-23T07:20:15;23.90;99.90
51637;DHT22;37713;53.254;6.460;2022-07-23T07:22:41;24.40;99.90
51637;DHT22;37713;53.254;6.460;2022-07-23T07:25:07;24.90;99.90
51637;DHT22;37713;53.254;6.460;2022-07-23T07:27:33;25.20;99.90
51637;DHT22;37713;53.254;6.460;2022-07-23T07:29:59;25.80;98.40
51637;DHT22;37713;53.254;6.460;2022-07-23T07:32:24;25.40;96.00
51637;DHT22;37713;53.254;6.460;2022-07-23T07:34:50;24.30;95.10
51637;DHT22;37713;53.254;6.460;2022-07-23T07:37:16;23.50;99.10
51637;DHT22;37713;53.254;6.460;2022-07-23T07:39:42;22.80;99.90
51637;DHT22;37713;53.254;6.460;2022-07-23T07:42:08;22.40;99.90
51637;DHT22;37713;53.254;6.460;2022-07-23T07:44:34;21.90;99.90
51637;DHT22;37713;53.254;6.460;2022-07-23T07:47:00;21.70;99.90
51637;DHT22;37713;53.254;6.460;2022-07-23T07:49:26;21.60;99.90
51637;DHT22;37713;53.254;6.460;2022-07-23T07:51:51;21.50;99.90
51637;DHT22;37713;53.254;6.460;2022-07-23T07:54:17;21.40;99.90
51637;DHT22;37713;53.254;6.460;2022-07-23T07:56:43;21.10;99.90
51637;DHT22;37713;53.254;6.460;2022-07-23T07:59:09;20.90;99.90
51637;DHT22;37713;53.254;6.460;2022-07-23T08:01:34;20.70;99.90
51637;DHT22;37713;53.254;6.460;2022-07-23T08:04:00;20.50;99.90
51637;DHT22;37713;53.254;6.460;2022-07-23T08:06:26;20.40;99.90
51637;DHT22;37713;53.254;6.460;2022-07-23T08:08:52;21.00;99.90
51637;DHT22;37713;53.254;6.460;2022-07-23T08:11:17;21.80;99.90
51637;DHT22;37713;53.254;6.460;2022-07-23T08:13:43;22.00;99.90
51637;DHT22;37713;53.254;6.460;2022-07-23T08:16:10;22.10;99.90
51637;DHT22;37713;53.254;6.460;2022-07-23T08:18:36;22.20;99.90
51637;DHT22;37713;53.254;6.460;2022-07-23T08:21:02;22.10;99.90
51637;DHT22;37713;53.254;6.460;2022-07-23T08:23:30;21.80;99.90
51637;DHT22;37713;53.254;6.460;2022-07-23T08:25:56;21.60;99.90
51637;DHT22;37713;53.254;6.460;2022-07-23T08:28:23;21.00;99.90
51637;DHT22;37713;53.254;6.460;2022-07-23T08:30:49;20.50;99.90
51637;DHT22;37713;53.254;6.460;2022-07-23T08:33:16;20.40;99.90
51637;DHT22;37713;53.254;6.460;2022-07-23T08:35:48;20.30;99.90
51637;DHT22;37713;53.254;6.460;2022-07-23T08:38:17;20.20;99.90
51637;DHT22;37713;53.254;6.460;2022-07-23T08:40:52;20.20;99.90
51637;DHT22;37713;53.254;6.460;2022-07-23T08:43:23;20.50;99.90
51637;DHT22;37713;53.254;6.460;2022-07-23T08:45:52;20.50;99.90
51637;DHT22;37713;53.254;6.460;2022-07-23T08:48:24;20.80;99.90
51637;DHT22;37713;53.254;6.460;2022-07-23T08:50:58;20.90;99.90
51637;DHT22;37713;53.254;6.460;2022-07-23T08:53:25;21.00;99.90
51637;DHT22;37713;53.254;6.460;2022-07-23T08:55:58;20.90;99.90
51637;DHT22;37713;53.254;6.460;2022-07-23T08:58:25;20.90;99.90
51637;DHT22;37713;53.254;6.460;2022-07-23T09:00:51;20.80;99.90
51637;DHT22;37713;53.254;6.460;2022-07-23T09:03:22;20.80;99.90
51637;DHT22;37713;53.254;6.460;2022-07-23T09:05:50;20.70;99.90
51637;DHT22;37713;53.254;6.460;2022-07-23T09:08:19;20.60;99.90
51637;DHT22;37713;53.254;6.460;2022-07-23T09:11:00;20.60;99.90
51637;DHT22;37713;53.254;6.460;2022-07-23T09:13:28;20.50;99.90
51637;DHT22;37713;53.254;6.460;2022-07-23T09:15:56;20.60;99.90
51637;DHT22;37713;53.254;6.460;2022-07-23T09:18:37;20.70;99.90
51637;DHT22;37713;53.254;6.460;2022-07-23T09:21:10;20.70;99.90
51637;DHT22;37713;53.254;6.460;2022-07-23T09:23:41;20.80;99.90
51637;DHT22;37713;53.254;6.460;2022-07-23T09:26:30;20.80;99.90
51637;DHT22;37713;53.254;6.460;2022-07-23T09:31:30;21.00;99.90
51637;DHT22;37713;53.254;6.460;2022-07-23T09:36:45;21.20;99.90
51637;DHT22;37713;53.254;6.460;2022-07-23T09:39:12;21.20;99.90
51637;DHT22;37713;53.254;6.460;2022-07-23T09:41:44;21.30;99.90
51637;DHT22;37713;53.254;6.460;2022-07-23T09:44:13;21.30;99.90
51637;DHT22;37713;53.254;6.460;2022-07-23T09:46:39;21.20;99.90
51637;DHT22;37713;53.254;6.460;2022-07-23T09:49:15;21.30;99.90
51637;DHT22;37713;53.254;6.460;2022-07-23T09:56:52;21.10;99.90
51637;DHT22;37713;53.254;6.460;2022-07-23T09:59:28;21.10;99.90
51637;DHT22;37713;53.254;6.460;2022-07-23T10:01:58;21.10;99.90
51637;DHT22;37713;53.254;6.460;2022-07-23T10:04:27;20.90;99.90
51637;DHT22;37713;53.254;6.460;2022-07-23T10:06:55;20.80;99.90
51637;DHT22;37713;53.254;6.460;2022-07-23T10:09:24;20.60;99.90
51637;DHT22;37713;53.254;6.460;2022-07-23T10:11:52;20.70;99.90
51637;DHT22;37713;53.254;6.460;2022-07-23T10:14:20;20.60;99.90
51637;DHT22;37713;53.254;6.460;2022-07-23T10:16:47;20.60;99.90
51637;DHT22;37713;53.254;6.460;2022-07-23T10:19:13;20.70;99.90
51637;DHT22;37713;53.254;6.460;2022-07-23T10:21:49;20.80;99.90
51637;DHT22;37713;53.254;6.460;2022-07-23T10:27:35;20.80;99.90
51637;DHT22;37713;53.254;6.460;2022-07-23T10:30:36;20.90;99.90
51637;DHT22;37713;53.254;6.460;2022-07-23T10:38:53;21.20;99.90
51637;DHT22;37713;53.254;6.460;2022-07-23T10:41:36;21.40;99.90
51637;DHT22;37713;53.254;6.460;2022-07-23T10:46:35;21.60;99.90
51637;DHT22;37713;53.254;6.460;2022-07-23T10:49:24;21.70;99.90
51637;DHT22;37713;53.254;6.460;2022-07-23T10:54:39;21.70;99.90
51637;DHT22;37713;53.254;6.460;2022-07-23T11:02:32;21.90;99.90
51637;DHT22;37713;53.254;6.460;2022-07-23T11:05:07;21.90;99.90
51637;DHT22;37713;53.254;6.460;2022-07-23T11:07:34;21.90;99.90
51637;DHT22;37713;53.254;6.460;2022-07-23T11:10:00;21.70;99.90
51637;DHT22;37713;53.254;6.460;2022-07-23T11:15:12;21.90;99.90
51637;DHT22;37713;53.254;6.460;2022-07-23T11:25:28;21.80;99.90
51637;DHT22;37713;53.254;6.460;2022-07-23T11:28:06;21.80;99.90
51637;DHT22;37713;53.254;6.460;2022-07-23T11:35:35;21.70;99.90
51637;DHT22;37713;53.254;6.460;2022-07-23T11:38:05;21.60;99.90
51637;DHT22;37713;53.254;6.460;2022-07-23T11:40:32;21.70;99.90
51637;DHT22;37713;53.254;6.460;2022-07-23T11:43:04;22.00;99.90
51637;DHT22;37713;53.254;6.460;2022-07-23T11:45:41;22.20;99.90
51637;DHT22;37713;53.254;6.460;2022-07-23T11:48:09;22.30;99.90
51637;DHT22;37713;53.254;6.460;2022-07-23T11:50:36;22.30;99.90
51637;DHT22;37713;53.254;6.460;2022-07-23T11:53:02;22.40;99.90
51637;DHT22;37713;53.254;6.460;2022-07-23T11:55:28;22.50;99.90
51637;DHT22;37713;53.254;6.460;2022-07-23T11:57:55;22.70;99.90
51637;DHT22;37713;53.254;6.460;2022-07-23T12:00:26;22.80;99.90
51637;DHT22;37713;53.254;6.460;2022-07-23T12:03:00;22.90;99.90
51637;DHT22;37713;53.254;6.460;2022-07-23T12:05:32;22.90;99.90
51637;DHT22;37713;53.254;6.460;2022-07-23T12:07:59;23.00;99.90
51637;DHT22;37713;53.254;6.460;2022-07-23T12:10:39;22.90;99.90
51637;DHT22;37713;53.254;6.460;2022-07-23T12:13:18;22.90;99.90
51637;DHT22;37713;53.254;6.460;2022-07-23T12:15:47;23.00;99.90
51637;DHT22;37713;53.254;6.460;2022-07-23T12:18:20;23.20;99.90
51637;DHT22;37713;53.254;6.460;2022-07-23T12:20:49;23.20;99.90
51637;DHT22;37713;53.254;6.460;2022-07-23T12:23:17;23.20;99.90
51637;DHT22;37713;53.254;6.460;2022-07-23T12:25:45;22.90;99.90
51637;DHT22;37713;53.254;6.460;2022-07-23T12:28:16;22.80;99.90
51637;DHT22;37713;53.254;6.460;2022-07-23T12:30:50;22.90;99.90
51637;DHT22;37713;53.254;6.460;2022-07-23T12:33:32;23.10;99.90
51637;DHT22;37713;53.254;6.460;2022-07-23T12:36:03;23.20;99.90
51637;DHT22;37713;53.254;6.460;2022-07-23T12:38:43;23.20;99.90
51637;DHT22;37713;53.254;6.460;2022-07-23T12:41:09;23.30;99.90
51637;DHT22;37713;53.254;6.460;2022-07-23T12:43:43;23.50;99.90
51637;DHT22;37713;53.254;6.460;2022-07-23T12:53:43;23.30;99.90
51637;DHT22;37713;53.254;6.460;2022-07-23T12:56:15;23.20;99.90
51637;DHT22;37713;53.254;6.460;2022-07-23T13:09:10;22.80;99.90
51637;DHT22;37713;53.254;6.460;2022-07-23T13:11:36;22.80;99.90
51637;DHT22;37713;53.254;6.460;2022-07-23T13:14:02;22.80;99.90
51637;DHT22;37713;53.254;6.460;2022-07-23T13:16:29;22.60;99.90
51637;DHT22;37713;53.254;6.460;2022-07-23T13:18:55;22.70;99.90
51637;DHT22;37713;53.254;6.460;2022-07-23T13:21:25;22.50;99.90
51637;DHT22;37713;53.254;6.460;2022-07-23T13:23:51;22.30;99.90
51637;DHT22;37713;53.254;6.460;2022-07-23T13:26:17;22.50;99.90
51637;DHT22;37713;53.254;6.460;2022-07-23T13:28:43;22.50;99.90
51637;DHT22;37713;53.254;6.460;2022-07-23T13:31:09;22.60;99.90
51637;DHT22;37713;53.254;6.460;2022-07-23T13:33:35;22.80;99.90
51637;DHT22;37713;53.254;6.460;2022-07-23T13:36:01;22.90;99.90
51637;DHT22;37713;53.254;6.460;2022-07-23T13:38:27;22.70;99.90
51637;DHT22;37713;53.254;6.460;2022-07-23T13:40:53;22.90;99.90
51637;DHT22;37713;53.254;6.460;2022-07-23T13:43:23;22.80;99.90
51637;DHT22;37713;53.254;6.460;2022-07-23T13:45:49;22.90;99.90
51637;DHT22;37713;53.254;6.460;2022-07-23T13:48:17;23.00;99.90
51637;DHT22;37713;53.254;6.460;2022-07-23T13:50:43;23.00;99.90
51637;DHT22;37713;53.254;6.460;2022-07-23T13:53:13;23.10;99.90
51637;DHT22;37713;53.254;6.460;2022-07-23T13:55:40;23.30;99.90
51637;DHT22;37713;53.254;6.460;2022-07-23T13:58:06;23.40;99.90
51637;DHT22;37713;53.254;6.460;2022-07-23T14:00:33;23.30;99.90
51637;DHT22;37713;53.254;6.460;2022-07-23T14:02:59;23.10;99.90
51637;DHT22;37713;53.254;6.460;2022-07-23T14:05:26;23.10;99.90
51637;DHT22;37713;53.254;6.460;2022-07-23T14:07:52;23.20;99.90
51637;DHT22;37713;53.254;6.460;2022-07-23T14:10:20;23.30;99.90
51637;DHT22;37713;53.254;6.460;2022-07-23T14:12:47;23.40;99.90
51637;DHT22;37713;53.254;6.460;2022-07-23T14:15:13;23.60;99.90
51637;DHT22;37713;53.254;6.460;2022-07-23T14:17:41;23.80;99.90
51637;DHT22;37713;53.254;6.460;2022-07-23T14:20:08;23.80;99.90
51637;DHT22;37713;53.254;6.460;2022-07-23T14:22:34;23.70;99.90
51637;DHT22;37713;53.254;6.460;2022-07-23T14:25:00;23.80;99.90
51637;DHT22;37713;53.254;6.460;2022-07-23T14:27:27;23.70;99.90
51637;DHT22;37713;53.254;6.460;2022-07-23T14:29:53;23.60;99.90
51637;DHT22;37713;53.254;6.460;2022-07-23T14:32:20;23.50;99.90
51637;DHT22;37713;53.254;6.460;2022-07-23T14:34:46;23.50;99.90
51637;DHT22;37713;53.254;6.460;2022-07-23T14:37:13;23.70;99.90
51637;DHT22;37713;53.254;6.460;2022-07-23T14:39:40;23.80;99.90
51637;DHT22;37713;53.254;6.460;2022-07-23T14:42:06;23.80;99.90
51637;DHT22;37713;53.254;6.460;2022-07-23T14:44:33;23.60;99.90
51637;DHT22;37713;53.254;6.460;2022-07-23T14:46:59;23.60;99.90
51637;DHT22;37713;53.254;6.460;2022-07-23T14:49:26;23.80;99.90
51637;DHT22;37713;53.254;6.460;2022-07-23T14:51:52;24.00;99.90
51637;DHT22;37713;53.254;6.460;2022-07-23T14:54:18;24.10;99.90
51637;DHT22;37713;53.254;6.460;2022-07-23T14:56:45;24.10;99.90
51637;DHT22;37713;53.254;6.460;2022-07-23T14:59:12;24.30;99.90
51637;DHT22;37713;53.254;6.460;2022-07-23T15:01:38;24.20;99.90
51637;DHT22;37713;53.254;6.460;2022-07-23T15:04:05;24.20;99.90
51637;DHT22;37713;53.254;6.460;2022-07-23T15:06:32;24.30;99.90
51637;DHT22;37713;53.254;6.460;2022-07-23T15:08:58;24.20;99.90
51637;DHT22;37713;53.254;6.460;2022-07-23T15:11:26;24.00;99.90
51637;DHT22;37713;53.254;6.460;2022-07-23T15:13:52;23.80;99.90
51637;DHT22;37713;53.254;6.460;2022-07-23T15:16:18;24.00;99.90
51637;DHT22;37713;53.254;6.460;2022-07-23T15:18:44;24.00;99.90
51637;DHT22;37713;53.254;6.460;2022-07-23T15:21:10;23.90;99.90
51637;DHT22;37713;53.254;6.460;2022-07-23T15:23:36;24.00;99.90
51637;DHT22;37713;53.254;6.460;2022-07-23T15:26:05;24.00;99.90
51637;DHT22;37713;53.254;6.460;2022-07-23T15:28:31;24.00;99.90
51637;DHT22;37713;53.254;6.460;2022-07-23T15:30:57;24.10;99.90
51637;DHT22;37713;53.254;6.460;2022-07-23T15:33:22;24.10;99.90
51637;DHT22;37713;53.254;6.460;2022-07-23T15:35:49;24.00;99.90
51637;DHT22;37713;53.254;6.460;2022-07-23T15:38:15;24.00;99.90
51637;DHT22;37713;53.254;6.460;2022-07-23T15:40:41;24.00;99.90
51637;DHT22;37713;53.254;6.460;2022-07-23T15:43:06;24.00;99.90
51637;DHT22;37713;53.254;6.460;2022-07-23T15:45:33;23.90;99.90
51637;DHT22;37713;53.254;6.460;2022-07-23T15:47:58;24.00;99.90
51637;DHT22;37713;53.254;6.460;2022-07-23T15:50:24;23.90;99.90
51637;DHT22;37713;53.254;6.460;2022-07-23T15:52:50;24.00;99.90
51637;DHT22;37713;53.254;6.460;2022-07-23T15:55:16;23.80;99.90
51637;DHT22;37713;53.254;6.460;2022-07-23T15:57:42;23.70;99.90
51637;DHT22;37713;53.254;6.460;2022-07-23T16:00:08;23.80;99.90
51637;DHT22;37713;53.254;6.460;2022-07-23T16:02:34;23.80;99.90
51637;DHT22;37713;53.254;6.460;2022-07-23T16:05:00;23.90;99.90
51637;DHT22;37713;53.254;6.460;2022-07-23T16:07:26;23.70;99.90
51637;DHT22;37713;53.254;6.460;2022-07-23T16:09:52;23.40;99.90
51637;DHT22;37713;53.254;6.460;2022-07-23T16:12:18;23.30;99.90
51637;DHT22;37713;53.254;6.460;2022-07-23T16:14:44;23.30;99.90
51637;DHT22;37713;53.254;6.460;2022-07-23T16:17:10;23.50;99.90
51637;DHT22;37713;53.254;6.460;2022-07-23T16:19:36;23.50;99.90
51637;DHT22;37713;53.254;6.460;2022-07-23T16:22:02;23.60;99.90
51637;DHT22;37713;53.254;6.460;2022-07-23T16:24:28;23.70;99.90
51637;DHT22;37713;53.254;6.460;2022-07-23T16:26:54;23.80;99.90
51637;DHT22;37713;53.254;6.460;2022-07-23T16:29:19;23.60;99.90
51637;DHT22;37713;53.254;6.460;2022-07-23T16:31:45;23.30;99.90
51637;DHT22;37713;53.254;6.460;2022-07-23T16:34:11;23.10;99.90